createdAt,value
2018-07-17T00:00:53.755Z,985.49
2018-07-17T00:02:00.585Z,985.51
2018-07-17T00:03:07.657Z,985.56
2018-07-17T00:04:14.559Z,985.42
2018-07-17T00:05:21.310Z,985.50
2018-07-17T00:06:28.175Z,985.50
2018-07-17T00:07:34.946Z,985.47
2018-07-17T00:08:41.942Z,985.44
2018-07-17T00:09:48.706Z,985.38
2018-07-17T00:10:55.519Z,985.52
2018-07-17T00:12:02.375Z,985.46
2018-07-17T00:13:09.387Z,985.52
2018-07-17T00:14:16.162Z,985.44
2018-07-17T00:15:22.917Z,985.50
2018-07-17T00:16:29.718Z,985.41
2018-07-17T00:17:36.462Z,985.43
2018-07-17T00:18:43.262Z,985.46
2018-07-17T00:19:50.194Z,985.49
2018-07-17T00:20:57.051Z,985.47
2018-07-17T00:22:03.829Z,985.50
2018-07-17T00:23:10.669Z,985.47
2018-07-17T00:24:17.462Z,985.37
2018-07-17T00:25:24.224Z,985.48
2018-07-17T00:26:31.027Z,985.40
2018-07-17T00:27:37.881Z,985.43
2018-07-17T00:28:44.629Z,985.39
2018-07-17T00:29:51.419Z,985.38
2018-07-17T00:30:58.327Z,985.47
2018-07-17T00:32:05.116Z,985.49
2018-07-17T00:33:11.873Z,985.40
2018-07-17T00:34:18.614Z,985.40
2018-07-17T00:35:25.541Z,985.50
2018-07-17T00:36:32.296Z,985.43
2018-07-17T00:37:39.039Z,985.38
2018-07-17T00:38:45.835Z,985.48
2018-07-17T00:39:52.582Z,985.44
2018-07-17T00:40:59.755Z,985.29
2018-07-17T00:42:06.552Z,985.42
2018-07-17T00:43:13.417Z,985.38
2018-07-17T00:44:20.232Z,985.43
2018-07-17T00:45:26.989Z,985.38
2018-07-17T00:46:33.912Z,985.43
2018-07-17T00:47:40.678Z,985.50
2018-07-17T00:48:47.463Z,985.45
2018-07-17T00:49:54.317Z,985.53
2018-07-17T00:51:01.108Z,985.45
2018-07-17T00:52:07.886Z,985.48
2018-07-17T00:53:14.614Z,985.51
2018-07-17T00:54:21.390Z,985.49
2018-07-17T00:55:28.151Z,985.49
2018-07-17T00:56:34.927Z,985.49
2018-07-17T00:57:41.842Z,985.51
2018-07-17T00:58:48.952Z,985.54
2018-07-17T00:59:55.689Z,985.47
2018-07-17T01:01:02.461Z,985.54
2018-07-17T01:02:09.222Z,985.54
2018-07-17T01:03:16.258Z,985.54
2018-07-17T01:04:23.209Z,985.50
2018-07-17T01:05:30.131Z,985.49
2018-07-17T01:06:37.018Z,985.51
2018-07-17T01:07:43.957Z,985.51
2018-07-17T01:08:50.798Z,985.49
2018-07-17T01:09:57.779Z,985.48
2018-07-17T01:11:04.766Z,985.46
2018-07-17T01:12:11.780Z,985.48
2018-07-17T01:13:18.514Z,985.45
2018-07-17T01:14:25.543Z,985.55
2018-07-17T01:15:32.394Z,985.57
2018-07-17T01:16:39.166Z,985.54
2018-07-17T01:17:46.020Z,985.50
2018-07-17T01:18:52.799Z,985.52
2018-07-17T01:19:59.640Z,985.53
2018-07-17T01:21:06.433Z,985.52
2018-07-17T01:22:13.219Z,985.55
2018-07-17T01:23:20.029Z,985.58
2018-07-17T01:24:26.903Z,985.56
2018-07-17T01:25:33.679Z,985.50
2018-07-17T01:26:40.762Z,985.54
2018-07-17T01:27:47.630Z,985.54
2018-07-17T01:28:54.490Z,985.56
2018-07-17T01:30:01.257Z,985.54
2018-07-17T01:31:08.092Z,985.63
2018-07-17T01:32:14.944Z,985.58
2018-07-17T01:33:21.726Z,985.56
2018-07-17T01:34:28.566Z,985.60
2018-07-17T01:35:35.377Z,985.58
2018-07-17T01:36:42.534Z,985.61
2018-07-17T01:37:48.875Z,985.57
2018-07-17T01:38:55.650Z,985.52
2018-07-17T01:40:02.477Z,985.55
2018-07-17T01:41:09.250Z,985.58
2018-07-17T01:42:16.053Z,985.54
2018-07-17T01:43:22.894Z,985.46
2018-07-17T01:44:29.647Z,985.48
2018-07-17T01:45:36.459Z,985.51
2018-07-17T01:46:43.354Z,985.49
2018-07-17T01:47:50.511Z,985.43
2018-07-17T01:48:57.281Z,985.47
2018-07-17T01:50:04.083Z,985.51
2018-07-17T01:51:10.927Z,985.45
2018-07-17T01:52:17.722Z,985.48
2018-07-17T01:53:24.481Z,985.49
2018-07-17T01:54:31.358Z,985.42
2018-07-17T01:55:38.138Z,985.48
2018-07-17T01:56:44.882Z,985.43
2018-07-17T01:57:51.789Z,985.45
2018-07-17T01:58:58.569Z,985.46
2018-07-17T02:00:05.322Z,985.40
2018-07-17T02:01:12.218Z,985.44
2018-07-17T02:02:19.003Z,985.40
2018-07-17T02:03:25.807Z,985.44
2018-07-17T02:04:32.666Z,985.45
2018-07-17T02:05:39.443Z,985.41
2018-07-17T02:06:46.214Z,985.49
2018-07-17T02:07:53.110Z,985.45
2018-07-17T02:08:59.889Z,985.48
2018-07-17T02:10:06.867Z,985.49
2018-07-17T02:11:13.898Z,985.46
2018-07-17T02:12:20.678Z,985.48
2018-07-17T02:13:27.468Z,985.49
2018-07-17T02:14:34.300Z,985.43
2018-07-17T02:15:41.070Z,985.47
2018-07-17T02:16:47.852Z,985.48
2018-07-17T02:17:54.631Z,985.49
2018-07-17T02:19:01.511Z,985.44
2018-07-17T02:20:08.339Z,985.53
2018-07-17T02:21:15.091Z,985.57
2018-07-17T02:22:21.930Z,985.45
2018-07-17T02:23:28.724Z,985.53
2018-07-17T02:24:35.534Z,985.48
2018-07-17T02:25:42.386Z,985.54
2018-07-17T02:26:49.134Z,985.49
2018-07-17T02:27:55.879Z,985.54
2018-07-17T02:29:02.622Z,985.44
2018-07-17T02:30:09.854Z,985.48
2018-07-17T02:31:16.618Z,985.41
2018-07-17T02:32:23.370Z,985.47
2018-07-17T02:33:30.253Z,985.44
2018-07-17T02:34:37.110Z,985.57
2018-07-17T02:35:43.885Z,985.44
2018-07-17T02:36:50.723Z,985.48
2018-07-17T02:37:57.486Z,985.51
2018-07-17T02:39:04.222Z,985.57
2018-07-17T02:40:11.055Z,985.54
2018-07-17T02:41:17.912Z,985.67
2018-07-17T02:42:24.749Z,985.68
2018-07-17T02:43:31.478Z,985.65
2018-07-17T02:44:38.357Z,985.73
2018-07-17T02:45:45.123Z,985.71
2018-07-17T02:46:51.887Z,985.80
2018-07-17T02:47:58.807Z,985.73
2018-07-17T02:49:05.539Z,985.80
2018-07-17T02:50:12.329Z,985.81
2018-07-17T02:51:19.082Z,985.73
2018-07-17T02:52:25.858Z,985.83
2018-07-17T02:53:32.686Z,985.83
2018-07-17T02:54:39.494Z,985.79
2018-07-17T02:55:46.305Z,985.80
2018-07-17T02:56:53.107Z,985.82
2018-07-17T02:57:59.918Z,985.82
2018-07-17T02:59:06.758Z,985.79
2018-07-17T03:00:13.504Z,985.82
2018-07-17T03:01:20.241Z,985.79
2018-07-17T03:02:27.017Z,985.79
2018-07-17T03:03:33.858Z,985.77
2018-07-17T03:04:40.595Z,985.82
2018-07-17T03:05:47.380Z,985.87
2018-07-17T03:06:54.132Z,985.88
2018-07-17T03:08:00.948Z,985.86
2018-07-17T03:09:07.734Z,985.88
2018-07-17T03:10:14.479Z,985.86
2018-07-17T03:11:21.212Z,985.89
2018-07-17T03:12:27.996Z,985.82
2018-07-17T03:13:34.745Z,985.86
2018-07-17T03:14:41.526Z,985.91
2018-07-17T03:15:48.254Z,985.93
2018-07-17T03:16:55.128Z,985.96
2018-07-17T03:18:01.935Z,985.96
2018-07-17T03:19:08.697Z,985.92
2018-07-17T03:20:15.541Z,985.90
2018-07-17T03:21:22.310Z,985.99
2018-07-17T03:22:29.094Z,985.97
2018-07-17T03:23:36.016Z,985.92
2018-07-17T03:24:42.850Z,985.94
2018-07-17T03:25:49.766Z,985.88
2018-07-17T03:26:56.539Z,985.91
2018-07-17T03:28:03.326Z,985.93
2018-07-17T03:29:10.450Z,985.87
2018-07-17T03:30:17.398Z,985.90
2018-07-17T03:31:24.155Z,985.92
2018-07-17T03:32:31.010Z,985.89
2018-07-17T03:33:37.834Z,985.95
2018-07-17T03:34:44.635Z,985.98
2018-07-17T03:35:51.439Z,985.99
2018-07-17T03:36:58.247Z,986.01
2018-07-17T03:38:05.054Z,986.00
2018-07-17T03:39:11.888Z,985.97
2018-07-17T03:40:18.687Z,985.92
2018-07-17T03:41:25.537Z,985.92
2018-07-17T03:42:32.381Z,986.00
2018-07-17T03:43:39.414Z,985.99
2018-07-17T03:44:46.267Z,986.04
2018-07-17T03:45:53.047Z,986.00
2018-07-17T03:46:59.838Z,985.99
2018-07-17T03:48:06.503Z,985.98
2018-07-17T03:49:13.394Z,985.96
2018-07-17T03:50:20.153Z,985.94
2018-07-17T03:51:26.918Z,985.97
2018-07-17T03:52:33.798Z,985.93
2018-07-17T03:53:40.626Z,985.97
2018-07-17T03:54:47.432Z,986.03
2018-07-17T03:55:54.343Z,986.03
2018-07-17T03:57:01.239Z,986.00
2018-07-17T03:58:08.048Z,986.10
2018-07-17T03:59:14.841Z,986.08
2018-07-17T04:00:21.675Z,986.09
2018-07-17T04:01:28.494Z,986.13
2018-07-17T04:02:35.322Z,986.13
2018-07-17T04:03:42.158Z,986.18
2018-07-17T04:04:48.963Z,986.16
2018-07-17T04:05:55.737Z,986.07
2018-07-17T04:07:02.564Z,986.17
2018-07-17T04:08:09.422Z,986.21
2018-07-17T04:09:16.265Z,986.24
2018-07-17T04:10:23.022Z,986.24
2018-07-17T04:11:29.838Z,986.28
2018-07-17T04:12:36.654Z,986.28
2018-07-17T04:13:43.417Z,986.28
2018-07-17T04:14:50.299Z,986.31
2018-07-17T04:15:57.099Z,986.30
2018-07-17T04:17:03.855Z,986.28
2018-07-17T04:18:10.726Z,986.33
2018-07-17T04:19:17.515Z,986.31
2018-07-17T04:20:24.311Z,986.33
2018-07-17T04:21:31.386Z,986.36
2018-07-17T04:22:38.292Z,986.28
2018-07-17T04:23:45.074Z,986.41
2018-07-17T04:24:51.881Z,986.29
2018-07-17T04:25:58.719Z,986.32
2018-07-17T04:27:05.479Z,986.32
2018-07-17T04:28:12.255Z,986.28
2018-07-17T04:29:19.034Z,986.26
2018-07-17T04:30:26.129Z,986.33
2018-07-17T04:31:32.945Z,986.37
2018-07-17T04:32:39.726Z,986.35
2018-07-17T04:33:46.500Z,986.35
2018-07-17T04:34:53.405Z,986.34
2018-07-17T04:36:00.192Z,986.36
2018-07-17T04:37:06.963Z,986.32
2018-07-17T04:38:13.835Z,986.37
2018-07-17T04:39:20.622Z,986.40
2018-07-17T04:40:27.376Z,986.41
2018-07-17T04:41:34.238Z,986.42
2018-07-17T04:42:41.067Z,986.45
2018-07-17T04:43:47.817Z,986.44
2018-07-17T04:44:54.704Z,986.47
2018-07-17T04:46:01.481Z,986.43
2018-07-17T04:47:08.405Z,986.42
2018-07-17T04:48:15.168Z,986.40
2018-07-17T04:49:22.218Z,986.41
2018-07-17T04:50:28.987Z,986.38
2018-07-17T04:51:35.750Z,986.47
2018-07-17T04:52:42.488Z,986.43
2018-07-17T04:53:49.275Z,986.41
2018-07-17T04:54:56.043Z,986.39
2018-07-17T04:56:02.840Z,986.46
2018-07-17T04:57:09.665Z,986.40
2018-07-17T04:58:16.425Z,986.48
2018-07-17T04:59:23.458Z,986.45
2018-07-17T05:00:30.213Z,986.49
2018-07-17T05:01:37.070Z,986.49
2018-07-17T05:02:43.835Z,986.48
2018-07-17T05:03:50.594Z,986.49
2018-07-17T05:04:57.369Z,986.52
2018-07-17T05:06:04.213Z,986.53
2018-07-17T05:07:10.990Z,986.49
2018-07-17T05:08:17.754Z,986.54
2018-07-17T05:09:24.498Z,986.50
2018-07-17T05:10:31.258Z,986.52
2018-07-17T05:11:38.046Z,986.54
2018-07-17T05:12:45.020Z,986.61
2018-07-17T05:13:51.808Z,986.51
2018-07-17T05:14:58.606Z,986.54
2018-07-17T05:16:05.447Z,986.57
2018-07-17T05:17:12.285Z,986.63
2018-07-17T05:18:19.619Z,986.59
2018-07-17T05:19:25.957Z,986.61
2018-07-17T05:20:32.715Z,986.54
2018-07-17T05:21:39.458Z,986.60
2018-07-17T05:22:46.300Z,986.59
2018-07-17T05:23:53.047Z,986.61
2018-07-17T05:24:59.815Z,986.57
2018-07-17T05:26:06.683Z,986.62
2018-07-17T05:27:13.488Z,986.53
2018-07-17T05:28:20.321Z,986.59
2018-07-17T05:29:27.113Z,986.58
2018-07-17T05:30:33.892Z,986.54
2018-07-17T05:31:40.643Z,986.61
2018-07-17T05:32:47.516Z,986.61
2018-07-17T05:33:54.211Z,986.62
2018-07-17T05:35:01.035Z,986.61
2018-07-17T05:36:07.937Z,986.60
2018-07-17T05:37:14.726Z,986.59
2018-07-17T05:38:21.735Z,986.62
2018-07-17T05:39:28.542Z,986.61
2018-07-17T05:40:35.311Z,986.59
2018-07-17T05:41:42.190Z,986.65
2018-07-17T05:42:48.969Z,986.55
2018-07-17T05:43:55.740Z,986.63
2018-07-17T05:45:02.621Z,986.65
2018-07-17T05:46:09.741Z,986.61
2018-07-17T05:47:16.494Z,986.65
2018-07-17T05:48:23.282Z,986.54
2018-07-17T05:49:30.181Z,986.62
2018-07-17T05:50:36.928Z,986.64
2018-07-17T05:51:43.729Z,986.58
2018-07-17T05:52:50.487Z,986.70
2018-07-17T05:53:57.251Z,986.66
2018-07-17T05:55:04.038Z,986.62
2018-07-17T05:56:10.846Z,986.69
2018-07-17T05:57:18.003Z,986.71
2018-07-17T05:58:24.846Z,986.62
2018-07-17T05:59:31.682Z,986.60
2018-07-17T06:00:38.448Z,986.67
2018-07-17T06:01:45.211Z,986.69
2018-07-17T06:02:51.972Z,986.62
2018-07-17T06:03:58.729Z,986.60
2018-07-17T06:05:05.574Z,986.49
2018-07-17T06:06:12.398Z,986.59
2018-07-17T06:07:19.203Z,986.56
2018-07-17T06:08:25.970Z,986.51
2018-07-17T06:09:32.767Z,986.54
2018-07-17T06:10:39.521Z,986.61
2018-07-17T06:11:46.318Z,986.65
2018-07-17T06:12:53.491Z,986.66
2018-07-17T06:14:00.287Z,986.64
2018-07-17T06:15:07.063Z,986.64
2018-07-17T06:16:13.857Z,986.65
2018-07-17T06:17:20.599Z,986.72
2018-07-17T06:18:27.437Z,986.72
2018-07-17T06:19:34.259Z,986.67
2018-07-17T06:20:41.073Z,986.65
2018-07-17T06:21:47.858Z,986.61
2018-07-17T06:22:54.630Z,986.65
2018-07-17T06:24:01.391Z,986.56
2018-07-17T06:25:08.317Z,986.59
2018-07-17T06:26:15.487Z,986.61
2018-07-17T06:27:22.370Z,986.56
2018-07-17T06:28:29.205Z,986.56
2018-07-17T06:29:35.951Z,986.56
2018-07-17T06:30:42.778Z,986.52
2018-07-17T06:31:49.636Z,986.48
2018-07-17T06:32:56.431Z,986.59
2018-07-17T06:34:03.204Z,986.58
2018-07-17T06:35:10.090Z,986.67
2018-07-17T06:36:16.858Z,986.62
2018-07-17T06:37:23.635Z,986.65
2018-07-17T06:38:30.555Z,986.65
2018-07-17T06:39:37.344Z,986.67
2018-07-17T06:40:44.126Z,986.69
2018-07-17T06:41:50.918Z,986.71
2018-07-17T06:42:57.684Z,986.67
2018-07-17T06:44:04.488Z,986.63
2018-07-17T06:45:11.343Z,986.69
2018-07-17T06:46:18.115Z,986.64
2018-07-17T06:47:24.894Z,986.58
2018-07-17T06:48:31.726Z,986.60
2018-07-17T06:49:38.619Z,986.56
2018-07-17T06:50:45.531Z,986.62
2018-07-17T06:51:52.358Z,986.65
2018-07-17T06:52:59.119Z,986.56
2018-07-17T06:54:05.910Z,986.58
2018-07-17T06:55:12.750Z,986.65
2018-07-17T06:56:19.674Z,986.58
2018-07-17T06:57:26.802Z,986.59
2018-07-17T06:58:33.534Z,986.67
2018-07-17T06:59:40.302Z,986.64
2018-07-17T07:00:47.098Z,986.68
2018-07-17T07:01:53.935Z,986.64
2018-07-17T07:03:00.737Z,986.63
2018-07-17T07:04:07.592Z,986.64
2018-07-17T07:05:14.430Z,986.68
2018-07-17T07:06:21.267Z,986.66
2018-07-17T07:07:28.028Z,986.64
2018-07-17T07:08:34.831Z,986.63
2018-07-17T07:09:41.591Z,986.69
2018-07-17T07:10:48.616Z,986.71
2018-07-17T07:11:55.430Z,986.71
2018-07-17T07:13:02.262Z,986.69
2018-07-17T07:14:09.320Z,986.67
2018-07-17T07:15:16.079Z,986.74
2018-07-17T07:16:22.854Z,986.68
2018-07-17T07:17:29.631Z,986.70
2018-07-17T07:18:36.394Z,986.69
2018-07-17T07:19:43.235Z,986.66
2018-07-17T07:20:50.008Z,986.70
2018-07-17T07:21:56.759Z,986.72
2018-07-17T07:23:03.515Z,986.72
2018-07-17T07:24:10.334Z,986.73
2018-07-17T07:25:17.164Z,986.69
2018-07-17T07:26:23.955Z,986.62
2018-07-17T07:27:30.782Z,986.71
2018-07-17T07:28:37.638Z,986.70
2018-07-17T07:29:44.410Z,986.71
2018-07-17T07:30:51.221Z,986.68
2018-07-17T07:31:58.031Z,986.68
2018-07-17T07:33:04.811Z,986.64
2018-07-17T07:34:11.606Z,986.67
2018-07-17T07:35:18.430Z,986.75
2018-07-17T07:36:25.254Z,986.61
2018-07-17T07:37:32.067Z,986.69
2018-07-17T07:38:38.811Z,986.73
2018-07-17T07:39:45.619Z,986.75
2018-07-17T07:40:52.410Z,986.70
2018-07-17T07:41:59.230Z,986.67
2018-07-17T07:43:06.040Z,986.62
2018-07-17T07:44:12.930Z,986.75
2018-07-17T07:45:19.832Z,986.71
2018-07-17T07:46:26.738Z,986.69
2018-07-17T07:47:33.527Z,986.71
2018-07-17T07:48:40.287Z,986.58
2018-07-17T07:49:47.298Z,986.63
2018-07-17T07:50:54.155Z,986.68
2018-07-17T07:52:01.093Z,986.69
2018-07-17T07:53:07.911Z,986.68
2018-07-17T07:54:15.054Z,986.70
2018-07-17T07:55:21.889Z,986.67
2018-07-17T07:56:28.693Z,986.66
2018-07-17T07:57:35.451Z,986.71
2018-07-17T07:58:42.323Z,986.80
2018-07-17T07:59:49.125Z,986.74
2018-07-17T08:00:56.145Z,986.75
2018-07-17T08:02:03.019Z,986.69
2018-07-17T08:03:09.918Z,986.74
2018-07-17T08:04:16.787Z,986.71
2018-07-17T08:05:23.716Z,986.73
2018-07-17T08:06:30.582Z,986.72
2018-07-17T08:07:37.512Z,986.72
2018-07-17T08:08:44.359Z,986.68
2018-07-17T08:09:51.113Z,986.67
2018-07-17T08:10:58.019Z,986.67
2018-07-17T08:12:04.853Z,986.69
2018-07-17T08:13:11.782Z,986.69
2018-07-17T08:14:18.619Z,986.67
2018-07-17T08:15:25.599Z,986.71
2018-07-17T08:16:32.515Z,986.73
2018-07-17T08:17:39.394Z,986.74
2018-07-17T08:18:46.207Z,986.75
2018-07-17T08:19:53.027Z,986.74
2018-07-17T08:20:59.866Z,986.77
2018-07-17T08:22:06.682Z,986.73
2018-07-17T08:23:13.506Z,986.77
2018-07-17T08:24:20.353Z,986.73
2018-07-17T08:25:27.094Z,986.83
2018-07-17T08:26:33.902Z,986.75
2018-07-17T08:27:40.740Z,986.78
2018-07-17T08:28:47.530Z,986.75
2018-07-17T08:29:54.313Z,986.76
2018-07-17T08:31:01.210Z,986.79
2018-07-17T08:32:08.120Z,986.81
2018-07-17T08:33:15.010Z,986.77
2018-07-17T08:34:21.798Z,986.83
2018-07-17T08:35:28.543Z,986.83
2018-07-17T08:36:35.309Z,986.80
2018-07-17T08:37:42.089Z,986.76
2018-07-17T08:38:48.886Z,986.73
2018-07-17T08:39:55.670Z,986.76
2018-07-17T08:41:02.522Z,986.77
2018-07-17T08:42:09.372Z,986.82
2018-07-17T08:43:16.159Z,986.78
2018-07-17T08:44:22.965Z,986.74
2018-07-17T08:45:29.718Z,986.77
2018-07-17T08:46:36.507Z,986.69
2018-07-17T08:47:43.262Z,986.73
2018-07-17T08:48:50.062Z,986.74
2018-07-17T08:49:56.895Z,986.75
2018-07-17T08:51:03.718Z,986.68
2018-07-17T08:52:10.519Z,986.78
2018-07-17T08:53:17.325Z,986.76
2018-07-17T08:54:24.142Z,986.76
2018-07-17T08:55:30.942Z,986.79
2018-07-17T08:56:37.737Z,986.82
2018-07-17T08:57:44.539Z,986.79
2018-07-17T08:58:51.389Z,986.79
2018-07-17T08:59:58.339Z,986.78
2018-07-17T09:01:05.194Z,986.82
2018-07-17T09:02:11.965Z,986.80
2018-07-17T09:03:18.727Z,986.79
2018-07-17T09:04:25.510Z,986.82
2018-07-17T09:05:32.398Z,986.79
2018-07-17T09:06:39.230Z,986.80
2018-07-17T09:07:46.099Z,986.79
2018-07-17T09:08:52.859Z,986.78
2018-07-17T09:10:00.078Z,986.75
2018-07-17T09:11:06.579Z,986.77
2018-07-17T09:12:13.703Z,986.74
2018-07-17T09:13:20.637Z,986.76
2018-07-17T09:14:27.568Z,986.79
2018-07-17T09:15:34.571Z,986.78
2018-07-17T09:16:41.610Z,986.79
2018-07-17T09:17:48.497Z,986.83
2018-07-17T09:18:55.978Z,986.86
2018-07-17T09:20:02.740Z,986.89
2018-07-17T09:21:09.520Z,986.87
2018-07-17T09:22:16.315Z,986.80
2018-07-17T09:23:23.213Z,986.93
2018-07-17T09:24:30.079Z,986.86
2018-07-17T09:25:37.189Z,986.83
2018-07-17T09:26:43.832Z,986.90
2018-07-17T09:27:50.693Z,986.92
2018-07-17T09:28:57.478Z,986.90
2018-07-17T09:30:04.383Z,986.90
2018-07-17T09:31:11.382Z,986.92
2018-07-17T09:32:18.159Z,986.89
2018-07-17T09:33:25.052Z,986.94
2018-07-17T09:34:31.982Z,986.88
2018-07-17T09:35:38.721Z,986.89
2018-07-17T09:36:45.562Z,986.86
2018-07-17T09:37:52.662Z,986.92
2018-07-17T09:38:59.436Z,986.84
2018-07-17T09:40:06.254Z,986.91
2018-07-17T09:41:13.127Z,986.90
2018-07-17T09:42:20.286Z,986.94
2018-07-17T09:43:27.046Z,987.05
2018-07-17T09:44:33.903Z,986.96
2018-07-17T09:45:40.738Z,987.10
2018-07-17T09:46:47.561Z,987.05
2018-07-17T09:47:54.392Z,987.13
2018-07-17T09:49:01.206Z,987.13
2018-07-17T09:50:08.146Z,987.12
2018-07-17T09:51:15.218Z,987.13
2018-07-17T09:52:22.054Z,987.07
2018-07-17T09:53:28.830Z,987.11
2018-07-17T09:54:35.638Z,987.02
2018-07-17T09:55:42.517Z,987.02
2018-07-17T09:56:49.331Z,987.13
2018-07-17T09:57:56.093Z,987.12
2018-07-17T09:59:02.882Z,987.13
2018-07-17T10:00:09.838Z,987.03
2018-07-17T10:01:16.714Z,987.11
2018-07-17T10:02:23.716Z,987.11
2018-07-17T10:03:30.725Z,987.18
2018-07-17T10:04:37.474Z,987.08
2018-07-17T10:05:44.271Z,987.15
2018-07-17T10:06:51.094Z,987.07
2018-07-17T10:07:57.906Z,987.13
2018-07-17T10:09:04.698Z,987.16
2018-07-17T10:10:11.499Z,987.01
2018-07-17T10:11:18.321Z,987.11
2018-07-17T10:12:25.094Z,987.12
2018-07-17T10:13:31.970Z,987.07
2018-07-17T10:14:38.825Z,987.16
2018-07-17T10:15:47.219Z,987.11
2018-07-17T10:17:08.803Z,987.13
2018-07-17T10:18:15.890Z,987.15
2018-07-17T10:19:22.697Z,987.23
2018-07-17T10:20:29.571Z,987.20
2018-07-17T10:21:38.105Z,987.24
2018-07-17T10:22:43.236Z,987.18
2018-07-17T10:23:50.038Z,987.22
2018-07-17T10:24:57.212Z,987.22
2018-07-17T10:26:04.024Z,987.24
2018-07-17T10:27:10.957Z,987.20
2018-07-17T10:28:17.701Z,987.17
2018-07-17T10:29:24.514Z,987.20
2018-07-17T10:30:31.352Z,987.20
2018-07-17T10:31:38.377Z,987.24
2018-07-17T10:32:45.224Z,987.24
2018-07-17T10:33:52.178Z,987.27
2018-07-17T10:34:59.160Z,987.29
2018-07-17T10:36:06.119Z,987.35
2018-07-17T10:37:12.951Z,987.25
2018-07-17T10:38:20.060Z,987.32
2018-07-17T10:39:26.878Z,987.31
2018-07-17T10:40:33.735Z,987.29
2018-07-17T10:41:40.646Z,987.28
2018-07-17T10:42:47.551Z,987.28
2018-07-17T10:43:54.390Z,987.30
2018-07-17T10:45:01.155Z,987.26
2018-07-17T10:46:08.290Z,987.28
2018-07-17T10:47:15.386Z,987.26
2018-07-17T10:48:22.149Z,987.32
2018-07-17T10:49:28.961Z,987.24
2018-07-17T10:50:35.765Z,987.25
2018-07-17T10:51:42.575Z,987.31
2018-07-17T10:52:49.390Z,987.30
2018-07-17T10:53:56.126Z,987.25
2018-07-17T10:55:02.902Z,987.31
2018-07-17T10:56:10.111Z,987.34
2018-07-17T10:57:16.862Z,987.24
2018-07-17T10:58:23.650Z,987.28
2018-07-17T10:59:30.395Z,987.33
2018-07-17T11:00:37.478Z,987.40
2018-07-17T11:01:44.235Z,987.38
2018-07-17T11:02:51.085Z,987.38
2018-07-17T11:03:57.961Z,987.47
2018-07-17T11:05:04.781Z,987.43
2018-07-17T11:06:11.667Z,987.34
2018-07-17T11:07:18.449Z,987.39
2018-07-17T11:08:25.279Z,987.36
2018-07-17T11:09:32.035Z,987.33
2018-07-17T11:10:38.902Z,987.40
2018-07-17T11:11:45.698Z,987.34
2018-07-17T11:12:52.788Z,987.34
2018-07-17T11:13:59.831Z,987.32
2018-07-17T11:15:06.635Z,987.31
2018-07-17T11:16:13.424Z,987.27
2018-07-17T11:17:20.345Z,987.38
2018-07-17T11:18:28.314Z,987.35
2018-07-17T11:19:34.135Z,987.34
2018-07-17T11:20:40.971Z,987.30
2018-07-17T11:21:47.942Z,987.33
2018-07-17T11:22:54.809Z,987.37
2018-07-17T11:24:01.574Z,987.33
2018-07-17T11:25:08.522Z,987.34
2018-07-17T11:26:15.329Z,987.36
2018-07-17T11:27:22.104Z,987.28
2018-07-17T11:28:28.881Z,987.36
2018-07-17T11:29:35.630Z,987.35
2018-07-17T11:30:42.483Z,987.37
2018-07-17T11:31:49.351Z,987.36
2018-07-17T11:32:56.178Z,987.37
2018-07-17T11:34:03.609Z,987.28
2018-07-17T11:35:09.986Z,987.28
2018-07-17T11:36:16.884Z,987.26
2018-07-17T11:37:23.674Z,987.24
2018-07-17T11:38:30.663Z,987.26
2018-07-17T11:39:37.418Z,987.22
2018-07-17T11:40:44.174Z,987.29
2018-07-17T11:41:51.025Z,987.20
2018-07-17T11:42:57.828Z,987.28
2018-07-17T11:44:04.685Z,987.30
2018-07-17T11:45:11.467Z,987.22
2018-07-17T11:46:18.244Z,987.23
2018-07-17T11:47:25.088Z,987.23
2018-07-17T11:48:32.137Z,987.30
2018-07-17T11:49:38.957Z,987.16
2018-07-17T11:50:45.783Z,987.24
2018-07-17T11:51:52.605Z,987.29
2018-07-17T11:52:59.422Z,987.16
2018-07-17T11:54:06.516Z,987.19
2018-07-17T11:55:13.312Z,987.09
2018-07-17T11:56:20.285Z,987.21
2018-07-17T11:57:27.127Z,987.19
2018-07-17T11:58:33.975Z,987.12
2018-07-17T11:59:40.901Z,987.08
2018-07-17T12:00:47.563Z,987.11
2018-07-17T12:01:54.425Z,987.17
2018-07-17T12:03:01.442Z,987.08
2018-07-17T12:04:08.722Z,987.13
2018-07-17T12:05:15.071Z,987.13
2018-07-17T12:06:22.133Z,987.13
2018-07-17T12:07:28.982Z,987.12
2018-07-17T12:08:35.750Z,987.20
2018-07-17T12:09:44.464Z,987.16
2018-07-17T12:10:49.350Z,987.11
2018-07-17T12:11:57.584Z,987.19
2018-07-17T12:13:03.335Z,987.10
2018-07-17T12:14:10.178Z,987.14
2018-07-17T12:15:17.063Z,987.13
2018-07-17T12:16:23.958Z,987.17
2018-07-17T12:17:30.759Z,987.11
2018-07-17T12:18:37.534Z,987.16
2018-07-17T12:19:44.378Z,987.20
2018-07-17T12:20:51.190Z,987.26
2018-07-17T12:21:57.994Z,987.20
2018-07-17T12:23:04.890Z,987.17
2018-07-17T12:24:11.685Z,987.19
2018-07-17T12:25:18.514Z,987.15
2018-07-17T12:26:25.273Z,987.17
2018-07-17T12:27:32.127Z,987.12
2018-07-17T12:28:38.946Z,987.13
2018-07-17T12:29:45.679Z,987.06
2018-07-17T12:30:52.630Z,987.15
2018-07-17T12:31:59.463Z,987.08
2018-07-17T12:33:06.230Z,987.08
2018-07-17T12:34:12.981Z,987.12
2018-07-17T12:35:19.762Z,987.10
2018-07-17T12:36:26.565Z,987.11
2018-07-17T12:37:33.430Z,987.07
2018-07-17T12:38:40.272Z,987.09
2018-07-17T12:39:47.071Z,987.07
2018-07-17T12:40:53.866Z,987.08
2018-07-17T12:42:00.657Z,987.11
2018-07-17T12:43:07.527Z,987.02
2018-07-17T12:44:14.298Z,987.09
2018-07-17T12:45:21.092Z,987.13
2018-07-17T12:46:27.880Z,987.10
2018-07-17T12:47:34.806Z,987.11
2018-07-17T12:48:41.582Z,987.11
2018-07-17T12:49:48.367Z,987.15
2018-07-17T12:50:55.310Z,987.16
2018-07-17T12:52:02.078Z,987.15
2018-07-17T12:53:08.889Z,987.09
2018-07-17T12:54:15.732Z,987.12
2018-07-17T12:55:22.737Z,987.10
2018-07-17T12:56:29.554Z,987.10
2018-07-17T12:57:36.297Z,987.11
2018-07-17T12:58:43.165Z,987.09
2018-07-17T12:59:51.557Z,987.08
2018-07-17T13:00:56.797Z,987.02
2018-07-17T13:02:03.645Z,987.10
2018-07-17T13:03:10.805Z,987.08
2018-07-17T13:04:17.718Z,987.08
2018-07-17T13:05:26.702Z,987.12
2018-07-17T13:06:31.583Z,987.10
2018-07-17T13:07:39.142Z,987.08
2018-07-17T13:08:45.528Z,987.10
2018-07-17T13:09:52.335Z,987.20
2018-07-17T13:10:59.134Z,987.08
2018-07-17T13:12:06.296Z,987.15
2018-07-17T13:13:13.063Z,987.16
2018-07-17T13:14:19.790Z,987.15
2018-07-17T13:15:26.626Z,987.10
2018-07-17T13:16:33.446Z,987.05
2018-07-17T13:17:40.296Z,987.12
2018-07-17T13:18:47.094Z,987.07
2018-07-17T13:19:53.923Z,987.06
2018-07-17T13:21:00.690Z,987.05
2018-07-17T13:22:07.509Z,987.14
2018-07-17T13:23:14.404Z,987.10
2018-07-17T13:24:21.182Z,987.06
2018-07-17T13:25:27.962Z,987.11
2018-07-17T13:26:34.847Z,987.16
2018-07-17T13:27:41.638Z,987.11
2018-07-17T13:28:48.458Z,987.09
2018-07-17T13:29:55.319Z,987.15
2018-07-17T13:31:02.041Z,987.06
2018-07-17T13:32:08.827Z,987.05
2018-07-17T13:33:15.615Z,987.07
2018-07-17T13:34:22.356Z,987.07
2018-07-17T13:35:29.165Z,987.11
2018-07-17T13:36:35.911Z,986.96
2018-07-17T13:37:42.674Z,987.00
2018-07-17T13:38:49.570Z,987.04
2018-07-17T13:39:56.302Z,987.02
2018-07-17T13:41:03.031Z,987.00
2018-07-17T13:42:09.769Z,986.99
2018-07-17T13:43:16.540Z,987.06
2018-07-17T13:44:23.418Z,987.08
2018-07-17T13:45:30.159Z,987.16
2018-07-17T13:46:36.933Z,987.15
2018-07-17T13:47:43.729Z,987.11
2018-07-17T13:48:50.549Z,987.14
2018-07-17T13:49:57.315Z,987.12
2018-07-17T13:51:04.082Z,987.19
2018-07-17T13:52:10.830Z,987.15
2018-07-17T13:53:17.693Z,987.21
2018-07-17T13:54:24.422Z,987.08